createdAt,value
2023-02-16T00:01:05.148Z,10.67
2023-02-16T00:03:33.750Z,10.23
2023-02-16T00:06:03.300Z,9.83
2023-02-16T00:08:31.411Z,11.87
2023-02-16T00:11:17.018Z,11.17
2023-02-16T00:13:48.746Z,11.47
2023-02-16T00:16:18.306Z,10.27
2023-02-16T00:18:46.508Z,10.53
2023-02-16T00:21:16.043Z,11.23
2023-02-16T00:23:44.181Z,12.83
2023-02-16T00:26:15.476Z,11.77
2023-02-16T00:28:44.648Z,9.97
2023-02-16T00:31:17.816Z,12.07
2023-02-16T00:33:46.116Z,11.30
2023-02-16T00:36:15.657Z,11.87
2023-02-16T00:38:43.774Z,13.90
2023-02-16T00:41:37.803Z,14.13
2023-02-16T00:44:06.629Z,16.47
2023-02-16T00:46:34.905Z,13.37
2023-02-16T00:49:04.144Z,12.43
2023-02-16T00:51:33.621Z,11.57
2023-02-16T00:54:01.787Z,13.33
2023-02-16T00:56:30.173Z,13.50
2023-02-16T00:58:58.311Z,14.10
2023-02-16T01:01:26.487Z,15.40
2023-02-16T01:03:54.577Z,13.87
2023-02-16T01:06:41.758Z,14.70
2023-02-16T01:09:33.306Z,14.03
2023-02-16T01:12:02.738Z,13.87
2023-02-16T01:14:31.309Z,13.73
2023-02-16T01:17:01.037Z,14.90
2023-02-16T01:19:29.968Z,12.63
2023-02-16T01:21:58.071Z,12.20
2023-02-16T01:24:31.096Z,12.67
2023-02-16T01:26:59.206Z,12.83
2023-02-16T01:29:27.323Z,14.07
2023-02-16T01:31:55.649Z,14.33
2023-02-16T01:34:25.508Z,14.23
2023-02-16T01:36:53.932Z,16.13
2023-02-16T01:39:22.074Z,14.23
2023-02-16T01:42:12.685Z,14.53
2023-02-16T01:44:43.919Z,14.27
2023-02-16T01:47:17.865Z,13.40
2023-02-16T01:49:45.986Z,16.17
2023-02-16T01:52:25.484Z,13.87
2023-02-16T01:54:54.675Z,11.67
2023-02-16T01:57:28.620Z,14.70
2023-02-16T02:00:08.552Z,16.87
2023-02-16T02:02:43.970Z,14.30
2023-02-16T02:05:37.970Z,14.37
2023-02-16T02:08:13.564Z,14.57
2023-02-16T02:10:46.821Z,13.63
2023-02-16T02:13:20.730Z,14.07
2023-02-16T02:15:48.900Z,12.97
2023-02-16T02:18:17.453Z,13.20
2023-02-16T02:21:15.614Z,16.40
2023-02-16T02:23:52.409Z,17.77
2023-02-16T02:26:55.118Z,15.30
2023-02-16T02:29:57.278Z,15.03
2023-02-16T02:32:31.769Z,14.90
2023-02-16T02:35:03.251Z,15.00
2023-02-16T02:37:40.895Z,14.40
2023-02-16T02:40:12.996Z,14.53
2023-02-16T02:42:45.469Z,15.13
2023-02-16T02:45:15.394Z,14.80
2023-02-16T02:47:45.308Z,17.20
2023-02-16T02:50:32.173Z,18.50
2023-02-16T02:53:02.179Z,15.43
2023-02-16T02:55:48.501Z,15.57
2023-02-16T02:58:35.562Z,16.20
2023-02-16T03:01:03.961Z,17.17
2023-02-16T03:03:35.109Z,15.17
2023-02-16T03:06:05.753Z,14.67
2023-02-16T03:08:35.027Z,15.40
2023-02-16T03:11:23.419Z,17.73
2023-02-16T03:13:53.834Z,15.70
2023-02-16T03:16:24.777Z,16.20
2023-02-16T03:19:10.094Z,15.33
2023-02-16T03:21:55.826Z,16.47
2023-02-16T03:24:43.613Z,16.00
2023-02-16T03:27:29.136Z,19.67
2023-02-16T03:29:58.677Z,16.10
2023-02-16T03:32:26.952Z,13.47
2023-02-16T03:34:55.020Z,15.60
2023-02-16T03:37:23.276Z,15.30
2023-02-16T03:40:08.929Z,16.80
2023-02-16T03:42:37.073Z,13.70
2023-02-16T03:45:07.353Z,13.63
2023-02-16T03:47:35.512Z,15.43
2023-02-16T03:50:03.586Z,13.60
2023-02-16T03:52:31.972Z,15.27
2023-02-16T03:55:00.580Z,19.60
2023-02-16T03:57:28.636Z,15.13
2023-02-16T03:59:59.165Z,16.67
2023-02-16T04:02:28.985Z,16.63
2023-02-16T04:04:57.190Z,15.20
2023-02-16T04:07:25.611Z,16.70
2023-02-16T04:09:53.717Z,15.77
2023-02-16T04:12:38.825Z,14.30
2023-02-16T04:15:08.256Z,13.50
2023-02-16T04:17:37.745Z,14.57
2023-02-16T04:20:07.226Z,15.07
2023-02-16T04:22:35.325Z,14.60
2023-02-16T04:25:03.394Z,15.67
2023-02-16T04:27:31.497Z,13.63
2023-02-16T04:29:59.548Z,15.93
2023-02-16T04:32:27.689Z,13.37
2023-02-16T04:34:57.447Z,13.07
2023-02-16T04:37:25.523Z,15.50
2023-02-16T04:39:53.638Z,14.53
2023-02-16T04:42:21.716Z,15.53
2023-02-16T04:44:49.844Z,11.97
2023-02-16T04:47:17.918Z,15.23
2023-02-16T04:49:48.063Z,14.70
2023-02-16T04:52:19.380Z,11.97
2023-02-16T04:54:47.507Z,15.37
2023-02-16T04:57:16.028Z,16.07
2023-02-16T04:59:44.095Z,13.67
2023-02-16T05:02:12.475Z,15.43
2023-02-16T05:04:42.112Z,14.97
2023-02-16T05:07:10.273Z,17.00
2023-02-16T05:09:39.757Z,16.73
2023-02-16T05:12:25.446Z,16.80
2023-02-16T05:14:53.610Z,16.33
2023-02-16T05:17:22.820Z,16.43
2023-02-16T05:19:51.633Z,16.63
2023-02-16T05:22:19.793Z,19.70
2023-02-16T05:24:49.406Z,18.83
2023-02-16T05:27:18.146Z,23.37
2023-02-16T05:29:46.530Z,22.93
2023-02-16T05:32:14.727Z,25.73
2023-02-16T05:34:44.434Z,27.33
2023-02-16T05:37:12.626Z,31.60
2023-02-16T05:39:40.734Z,24.33
2023-02-16T05:42:10.610Z,24.57
2023-02-16T05:44:38.813Z,23.80
2023-02-16T05:47:06.932Z,25.57
2023-02-16T05:49:35.069Z,24.53
2023-02-16T05:52:03.403Z,24.70
2023-02-16T05:54:31.649Z,27.23
2023-02-16T05:57:00.116Z,24.00
2023-02-16T05:59:29.739Z,23.93
2023-02-16T06:01:57.892Z,24.30
2023-02-16T06:04:25.996Z,25.50
2023-02-16T06:06:54.061Z,21.27
2023-02-16T06:09:22.482Z,21.23
2023-02-16T06:11:50.566Z,23.40
2023-02-16T06:14:19.960Z,24.40
2023-02-16T06:16:50.120Z,27.67
2023-02-16T06:19:18.869Z,25.47
2023-02-16T06:21:46.972Z,27.07
2023-02-16T06:24:15.568Z,24.77
2023-02-16T06:26:43.736Z,23.20
2023-02-16T06:29:12.024Z,24.27
2023-02-16T06:31:40.234Z,24.03
2023-02-16T06:34:09.812Z,24.47
2023-02-16T06:36:39.044Z,23.27
2023-02-16T06:39:08.714Z,24.30
2023-02-16T06:41:40.211Z,22.67
2023-02-16T06:44:09.295Z,24.73
2023-02-16T06:46:37.495Z,26.30
2023-02-16T06:49:06.029Z,23.27
2023-02-16T06:51:35.494Z,24.30
2023-02-16T06:54:03.609Z,24.67
2023-02-16T06:56:31.724Z,25.80
2023-02-16T06:58:59.810Z,27.07
2023-02-16T07:01:27.942Z,26.90
2023-02-16T07:03:56.879Z,29.03
2023-02-16T07:06:25.340Z,25.50
2023-02-16T07:08:54.903Z,24.77
2023-02-16T07:11:22.961Z,24.63
2023-02-16T07:13:51.093Z,26.83
2023-02-16T07:16:19.551Z,25.67
2023-02-16T07:18:47.764Z,22.33
2023-02-16T07:21:15.926Z,23.70
2023-02-16T07:23:44.035Z,26.17
2023-02-16T07:26:13.587Z,24.60
2023-02-16T07:28:41.739Z,25.27
2023-02-16T07:31:10.881Z,22.23
2023-02-16T07:33:39.178Z,19.70
2023-02-16T07:36:08.166Z,26.40
2023-02-16T07:38:36.284Z,24.47
2023-02-16T07:41:07.865Z,22.50
2023-02-16T07:43:39.460Z,22.87
2023-02-16T07:46:07.935Z,22.07
2023-02-16T07:48:36.158Z,23.43
2023-02-16T07:51:05.090Z,23.20
2023-02-16T07:53:33.507Z,21.83
2023-02-16T07:56:01.634Z,22.63
2023-02-16T07:58:29.736Z,23.33
2023-02-16T08:01:07.218Z,23.07
2023-02-16T08:03:35.386Z,22.30
2023-02-16T08:06:03.929Z,21.93
2023-02-16T08:08:32.159Z,20.93
2023-02-16T08:11:01.791Z,20.50
2023-02-16T08:13:29.961Z,17.77
2023-02-16T08:15:59.516Z,19.53
2023-02-16T08:18:27.622Z,21.57
2023-02-16T08:21:04.116Z,20.00
2023-02-16T08:23:32.857Z,23.60
2023-02-16T08:26:01.220Z,17.50
2023-02-16T08:28:29.707Z,19.77
2023-02-16T08:30:59.862Z,20.47
2023-02-16T08:33:28.458Z,18.30
2023-02-16T08:35:56.556Z,18.17
2023-02-16T08:38:25.566Z,17.60
2023-02-16T08:40:54.101Z,17.80
2023-02-16T08:43:22.620Z,15.90
2023-02-16T08:45:51.821Z,16.43
2023-02-16T08:48:21.396Z,15.57
2023-02-16T08:50:53.827Z,17.90
2023-02-16T08:53:23.157Z,19.07
2023-02-16T08:55:55.738Z,17.30
2023-02-16T08:58:24.507Z,16.87
2023-02-16T09:00:52.688Z,15.07
2023-02-16T09:03:22.241Z,14.60
2023-02-16T09:05:51.287Z,15.20
2023-02-16T09:08:19.479Z,17.13
2023-02-16T09:10:47.611Z,15.27
2023-02-16T09:13:16.241Z,15.80
2023-02-16T09:15:44.668Z,16.97
2023-02-16T09:18:14.122Z,14.33
2023-02-16T09:20:46.737Z,15.97
2023-02-16T09:23:15.201Z,15.30
2023-02-16T09:25:43.367Z,14.87
2023-02-16T09:28:11.684Z,14.80
2023-02-16T09:30:39.893Z,15.73
2023-02-16T09:33:08.322Z,15.07
2023-02-16T09:35:36.498Z,13.87
2023-02-16T09:38:07.759Z,15.40
2023-02-16T09:40:36.172Z,18.53
2023-02-16T09:43:08.377Z,20.93
2023-02-16T09:45:40.881Z,15.00
2023-02-16T09:48:12.152Z,16.53
2023-02-16T09:50:53.387Z,15.37
2023-02-16T09:53:27.501Z,15.40
2023-02-16T09:55:59.694Z,17.87
2023-02-16T09:58:41.897Z,16.73
2023-02-16T10:01:14.576Z,18.40
2023-02-16T10:03:51.486Z,15.30
2023-02-16T10:06:42.293Z,15.27
2023-02-16T10:09:13.630Z,17.23
2023-02-16T10:11:46.635Z,15.80
2023-02-16T10:14:19.765Z,16.27
2023-02-16T10:16:51.960Z,15.40
2023-02-16T10:19:21.906Z,19.47
2023-02-16T10:21:52.587Z,16.77
2023-02-16T10:24:22.106Z,17.97
2023-02-16T10:26:52.137Z,19.73
2023-02-16T10:29:22.204Z,15.97
2023-02-16T10:31:53.028Z,19.10
2023-02-16T10:34:23.189Z,16.80
2023-02-16T10:37:20.806Z,17.63
2023-02-16T10:39:53.034Z,17.93
2023-02-16T10:42:25.840Z,17.27
2023-02-16T10:44:57.695Z,16.67
2023-02-16T10:47:31.199Z,20.80
2023-02-16T10:49:59.366Z,16.93
2023-02-16T10:52:27.573Z,15.60
2023-02-16T10:54:57.067Z,15.10
2023-02-16T10:57:27.601Z,16.80
2023-02-16T10:59:56.352Z,16.43
2023-02-16T11:02:26.237Z,14.57
2023-02-16T11:04:54.457Z,16.27
2023-02-16T11:07:23.401Z,15.20
2023-02-16T11:09:53.164Z,17.03
2023-02-16T11:12:30.054Z,14.30
2023-02-16T11:15:02.472Z,16.67
2023-02-16T11:17:31.436Z,15.63
2023-02-16T11:20:01.930Z,16.87
2023-02-16T11:22:32.645Z,15.80
2023-02-16T11:25:22.054Z,14.63
2023-02-16T11:27:57.098Z,21.00
2023-02-16T11:30:32.498Z,18.17
2023-02-16T11:33:02.129Z,17.07
2023-02-16T11:35:31.834Z,18.27
2023-02-16T11:38:00.356Z,20.07
2023-02-16T11:40:29.851Z,18.87
2023-02-16T11:42:59.933Z,16.37
2023-02-16T11:45:31.314Z,19.07
2023-02-16T11:48:01.733Z,20.47
2023-02-16T11:50:30.446Z,19.57
2023-02-16T11:52:59.343Z,21.00
2023-02-16T11:55:32.655Z,17.80
2023-02-16T11:58:16.569Z,19.57
2023-02-16T12:00:49.029Z,22.03
2023-02-16T12:03:45.612Z,21.70
2023-02-16T12:06:23.480Z,18.63
2023-02-16T12:09:01.464Z,21.00
2023-02-16T12:11:34.161Z,21.70
2023-02-16T12:14:13.532Z,21.20
2023-02-16T12:16:44.661Z,20.23
2023-02-16T12:19:20.292Z,19.97
2023-02-16T12:21:49.397Z,18.80
2023-02-16T12:24:28.495Z,19.73
2023-02-16T12:26:57.981Z,24.07
2023-02-16T12:29:37.960Z,20.13
2023-02-16T12:32:12.123Z,21.60
2023-02-16T12:34:48.813Z,24.47
2023-02-16T12:37:21.318Z,20.50
2023-02-16T12:39:52.686Z,20.17
2023-02-16T12:42:36.970Z,18.60
2023-02-16T12:45:10.046Z,18.20
2023-02-16T12:47:41.003Z,19.93
2023-02-16T12:50:12.645Z,20.43
2023-02-16T12:52:41.547Z,17.80
2023-02-16T12:55:18.018Z,19.67
2023-02-16T12:57:50.813Z,20.47
2023-02-16T13:00:24.057Z,18.10
2023-02-16T13:02:54.175Z,20.50
2023-02-16T13:05:23.227Z,18.00
2023-02-16T13:07:52.117Z,21.57
2023-02-16T13:10:22.135Z,20.73
2023-02-16T13:12:51.985Z,21.27
2023-02-16T13:15:23.152Z,18.63
2023-02-16T13:17:52.491Z,17.63
2023-02-16T13:20:21.380Z,20.80
2023-02-16T13:23:11.860Z,22.27
2023-02-16T13:25:54.229Z,20.17
2023-02-16T13:28:40.696Z,18.27
2023-02-16T13:31:22.450Z,22.00
2023-02-16T13:33:57.316Z,20.13
2023-02-16T13:36:33.981Z,17.50
2023-02-16T13:39:13.825Z,19.60
2023-02-16T13:41:46.733Z,18.27
2023-02-16T13:44:15.882Z,18.43
2023-02-16T13:46:47.046Z,20.67
2023-02-16T13:49:29.965Z,16.57
2023-02-16T13:51:58.564Z,17.53
2023-02-16T13:54:29.343Z,17.50
2023-02-16T13:56:57.379Z,20.37
2023-02-16T14:00:02.088Z,16.60
2023-02-16T14:02:54.489Z,15.37
2023-02-16T14:05:39.503Z,18.93
2023-02-16T14:08:13.308Z,17.37
2023-02-16T14:10:58.952Z,16.43
2023-02-16T14:13:29.497Z,17.33
2023-02-16T14:15:58.884Z,18.43
2023-02-16T14:18:32.746Z,14.93
2023-02-16T14:21:04.332Z,19.63
2023-02-16T14:23:34.699Z,18.70
2023-02-16T14:26:03.477Z,17.27
2023-02-16T14:29:16.071Z,16.70
2023-02-16T14:31:48.296Z,18.43
2023-02-16T14:34:21.471Z,18.07
2023-02-16T14:37:12.091Z,18.43
2023-02-16T14:40:04.153Z,17.63
2023-02-16T14:42:30.297Z,18.17
2023-02-16T14:45:19.700Z,16.67
2023-02-16T14:47:52.741Z,18.13
2023-02-16T14:50:35.157Z,20.27
2023-02-16T14:53:24.540Z,15.60
2023-02-16T14:56:25.729Z,19.93
2023-02-16T14:58:56.284Z,21.00
2023-02-16T15:01:24.876Z,18.63
2023-02-16T15:03:54.649Z,17.13
2023-02-16T15:06:31.935Z,14.70
2023-02-16T15:09:00.847Z,17.17
2023-02-16T15:11:31.488Z,18.40
2023-02-16T15:14:08.451Z,16.67
2023-02-16T15:16:38.869Z,18.70
2023-02-16T15:19:10.644Z,17.13
2023-02-16T15:21:40.304Z,19.87
2023-02-16T15:24:23.061Z,19.47
2023-02-16T15:26:55.932Z,18.17
2023-02-16T15:29:26.421Z,16.90
2023-02-16T15:31:54.669Z,16.40
2023-02-16T15:34:29.903Z,17.50
2023-02-16T15:36:59.522Z,17.63
2023-02-16T15:39:42.675Z,17.00
2023-02-16T15:42:19.923Z,18.60
2023-02-16T15:44:48.147Z,16.43
2023-02-16T15:47:17.552Z,15.33
2023-02-16T15:49:45.652Z,15.87
2023-02-16T15:52:17.675Z,15.97
2023-02-16T15:54:46.683Z,17.07
2023-02-16T15:57:20.066Z,16.97
2023-02-16T15:59:49.066Z,21.77
2023-02-16T16:02:18.559Z,19.53
2023-02-16T16:04:48.142Z,18.43
2023-02-16T16:07:18.853Z,17.07
2023-02-16T16:09:46.943Z,18.87
2023-02-16T16:12:15.739Z,16.77
2023-02-16T16:14:46.099Z,20.83
2023-02-16T16:17:15.629Z,17.63
2023-02-16T16:19:43.738Z,18.43
2023-02-16T16:22:40.130Z,24.47
2023-02-16T16:25:29.123Z,21.40
2023-02-16T16:27:57.245Z,23.33
2023-02-16T16:30:29.629Z,20.90
2023-02-16T16:33:02.365Z,20.93
2023-02-16T16:35:38.480Z,20.63
2023-02-16T16:38:10.414Z,20.80
2023-02-16T16:40:38.680Z,19.23
2023-02-16T16:43:15.218Z,20.83
2023-02-16T16:45:43.783Z,21.33
2023-02-16T16:48:17.732Z,19.20
2023-02-16T16:50:46.023Z,17.60
2023-02-16T16:53:55.064Z,18.23
2023-02-16T16:56:23.467Z,22.37
2023-02-16T16:58:51.815Z,22.47
2023-02-16T17:01:19.977Z,21.03
2023-02-16T17:03:55.566Z,21.40
2023-02-16T17:06:23.942Z,19.80
2023-02-16T17:08:52.089Z,22.50
2023-02-16T17:11:25.851Z,20.53
2023-02-16T17:13:54.869Z,20.40
2023-02-16T17:16:25.170Z,22.80
2023-02-16T17:18:53.229Z,19.07
2023-02-16T17:21:21.297Z,21.33
2023-02-16T17:23:53.140Z,18.73
2023-02-16T17:26:23.247Z,19.37
2023-02-16T17:28:52.237Z,24.23
2023-02-16T17:31:20.408Z,18.23
2023-02-16T17:33:48.551Z,20.73
2023-02-16T17:36:16.731Z,19.30
2023-02-16T17:38:44.934Z,17.07
2023-02-16T17:41:17.726Z,17.97
2023-02-16T17:43:47.419Z,20.30
2023-02-16T17:46:16.028Z,18.17
2023-02-16T17:48:44.112Z,19.77
2023-02-16T17:51:14.961Z,17.80
2023-02-16T17:53:43.071Z,20.37
2023-02-16T17:56:11.658Z,18.53
2023-02-16T17:58:39.791Z,20.77
2023-02-16T18:01:11.743Z,19.67
2023-02-16T18:03:39.812Z,18.70
2023-02-16T18:06:08.023Z,21.87
2023-02-16T18:08:36.065Z,21.07
2023-02-16T18:11:04.283Z,18.73
2023-02-16T18:13:32.480Z,23.53
2023-02-16T18:16:01.006Z,19.53
2023-02-16T18:18:30.463Z,21.23
2023-02-16T18:20:58.562Z,18.50
2023-02-16T18:23:26.605Z,18.93
2023-02-16T18:25:54.848Z,19.67
2023-02-16T18:28:26.799Z,21.53
2023-02-16T18:30:54.957Z,20.83
2023-02-16T18:33:23.246Z,18.57
2023-02-16T18:35:55.973Z,20.60
2023-02-16T18:38:24.568Z,21.53
2023-02-16T18:40:53.533Z,18.47
2023-02-16T18:43:21.621Z,19.73
2023-02-16T18:45:49.788Z,19.50
2023-02-16T18:48:17.922Z,19.00
2023-02-16T18:50:45.948Z,17.20
2023-02-16T18:53:15.706Z,22.17
2023-02-16T18:55:43.779Z,17.97
2023-02-16T18:58:12.304Z,20.80
2023-02-16T19:00:40.386Z,18.20
2023-02-16T19:03:08.655Z,17.63
2023-02-16T19:05:37.079Z,17.73
2023-02-16T19:08:05.416Z,23.63
2023-02-16T19:10:34.835Z,18.73
2023-02-16T19:13:03.221Z,18.10
2023-02-16T19:15:33.259Z,20.40
2023-02-16T19:18:01.719Z,20.70
2023-02-16T19:20:29.866Z,20.07
2023-02-16T19:22:57.965Z,18.80
2023-02-16T19:25:26.870Z,21.20
2023-02-16T19:27:57.226Z,18.20
2023-02-16T19:30:25.442Z,18.17
2023-02-16T19:32:53.903Z,20.90
2023-02-16T19:35:22.120Z,24.60
2023-02-16T19:37:51.490Z,19.60
2023-02-16T19:40:19.897Z,17.67
2023-02-16T19:42:47.927Z,22.20
2023-02-16T19:45:17.883Z,17.40
2023-02-16T19:47:46.276Z,16.63
2023-02-16T19:50:14.368Z,19.83
2023-02-16T19:52:42.489Z,18.70
2023-02-16T19:55:11.534Z,20.57
2023-02-16T19:57:40.061Z,18.63
2023-02-16T20:00:11.603Z,16.70
2023-02-16T20:02:43.967Z,20.77
2023-02-16T20:05:12.215Z,20.33
2023-02-16T20:07:40.515Z,16.90
2023-02-16T20:10:09.051Z,22.70
2023-02-16T20:12:37.189Z,19.37
2023-02-16T20:15:06.736Z,19.07
2023-02-16T20:17:34.973Z,19.10
2023-02-16T20:20:05.345Z,21.83
2023-02-16T20:22:33.571Z,21.10
2023-02-16T20:25:02.453Z,19.20
2023-02-16T20:27:30.926Z,16.03
2023-02-16T20:29:59.624Z,18.17
2023-02-16T20:32:28.313Z,18.33
2023-02-16T20:34:56.605Z,19.63
2023-02-16T20:37:26.348Z,16.00
2023-02-16T20:39:55.905Z,21.13
2023-02-16T20:42:24.054Z,18.77
2023-02-16T20:44:52.220Z,18.17
2023-02-16T20:47:20.450Z,17.37
2023-02-16T20:49:48.568Z,18.60
2023-02-16T20:52:16.748Z,16.97
2023-02-16T20:54:46.578Z,15.30
2023-02-16T20:57:26.002Z,16.93
2023-02-16T20:59:54.878Z,16.67
2023-02-16T21:02:23.138Z,15.70
2023-02-16T21:04:51.458Z,16.07
2023-02-16T21:07:19.958Z,16.10
2023-02-16T21:09:49.554Z,15.20
2023-02-16T21:12:17.757Z,17.07
2023-02-16T21:14:46.046Z,17.90
2023-02-16T21:17:14.223Z,16.33
2023-02-16T21:19:42.425Z,16.60
2023-02-16T21:22:10.864Z,13.07
2023-02-16T21:24:40.760Z,14.60
2023-02-16T21:27:10.397Z,13.17
2023-02-16T21:29:38.905Z,15.47
2023-02-16T21:32:07.203Z,15.63
2023-02-16T21:34:35.527Z,14.73
2023-02-16T21:37:04.491Z,14.07
2023-02-16T21:39:49.735Z,15.47
2023-02-16T21:42:19.356Z,16.83
2023-02-16T21:44:50.035Z,13.47
2023-02-16T21:47:36.183Z,13.77
2023-02-16T21:50:04.388Z,13.00
2023-02-16T21:52:32.552Z,14.43
2023-02-16T21:55:18.438Z,16.47
2023-02-16T21:57:47.950Z,14.33
2023-02-16T22:00:17.074Z,14.37
2023-02-16T22:02:45.448Z,16.43
2023-02-16T22:05:13.733Z,15.43
2023-02-16T22:07:41.980Z,14.83
2023-02-16T22:10:10.656Z,13.00
2023-02-16T22:12:38.994Z,13.47
2023-02-16T22:15:09.293Z,13.00
2023-02-16T22:17:37.511Z,12.33
2023-02-16T22:20:06.831Z,14.03
2023-02-16T22:22:35.063Z,14.63
2023-02-16T22:25:03.199Z,11.57
2023-02-16T22:27:31.393Z,13.67
2023-02-16T22:29:59.879Z,12.90
2023-02-16T22:32:29.591Z,13.13
2023-02-16T22:34:57.696Z,12.47
2023-02-16T22:37:25.922Z,11.53
2023-02-16T22:39:55.210Z,13.80
2023-02-16T22:42:23.665Z,10.80
2023-02-16T22:44:51.780Z,12.27
2023-02-16T22:47:20.065Z,11.67
2023-02-16T22:49:49.609Z,12.97
2023-02-16T22:52:17.843Z,13.27
2023-02-16T22:54:46.190Z,10.33
2023-02-16T22:57:14.622Z,13.97
2023-02-16T22:59:42.813Z,12.20
2023-02-16T23:02:10.905Z,13.50
2023-02-16T23:04:40.042Z,13.47
2023-02-16T23:07:10.709Z,12.43
2023-02-16T23:09:38.821Z,11.33
2023-02-16T23:12:07.611Z,17.40
2023-02-16T23:14:37.855Z,14.80
2023-02-16T23:17:05.983Z,12.83
2023-02-16T23:19:34.409Z,14.30
2023-02-16T23:22:02.550Z,12.40
2023-02-16T23:24:32.320Z,14.27
2023-02-16T23:27:00.476Z,12.73
2023-02-16T23:29:28.644Z,12.80
2023-02-16T23:31:56.841Z,13.80
2023-02-16T23:34:25.017Z,15.97
2023-02-16T23:36:53.185Z,13.17
2023-02-16T23:39:21.317Z,12.23
2023-02-16T23:41:50.818Z,12.73
2023-02-16T23:44:19.077Z,13.70
2023-02-16T23:46:47.152Z,11.73
2023-02-16T23:49:15.230Z,15.70
2023-02-16T23:51:43.323Z,11.70
2023-02-16T23:54:11.989Z,12.57
2023-02-16T23:56:40.715Z,9.93
2023-02-16T23:59:10.334Z,10.30
